createdAt,value
2016-12-09T00:00:11.620Z,82.95
2016-12-09T00:00:37.729Z,83.42
2016-12-09T00:01:03.838Z,82.51
2016-12-09T00:01:29.930Z,83.09
2016-12-09T00:01:56.035Z,82.61
2016-12-09T00:02:22.147Z,82.95
2016-12-09T00:02:48.244Z,82.67
2016-12-09T00:03:14.347Z,82.86
2016-12-09T00:03:40.457Z,83.04
2016-12-09T00:04:06.567Z,82.28
2016-12-09T00:04:32.680Z,83.14
2016-12-09T00:04:58.799Z,82.95
2016-12-09T00:05:24.905Z,83.04
2016-12-09T00:05:51.015Z,82.95
2016-12-09T00:06:17.111Z,82.67
2016-12-09T00:06:43.210Z,82.76
2016-12-09T00:07:09.320Z,82.61
2016-12-09T00:07:35.419Z,82.51
2016-12-09T00:08:01.515Z,82.42
2016-12-09T00:08:27.632Z,82.38
2016-12-09T00:08:53.732Z,82.57
2016-12-09T00:09:19.833Z,82.95
2016-12-09T00:09:45.946Z,82.67
2016-12-09T00:10:12.055Z,82.7
2016-12-09T00:10:38.151Z,82.14
2016-12-09T00:11:04.260Z,82.42
2016-12-09T00:11:30.355Z,82.14
2016-12-09T00:11:56.468Z,82.23
2016-12-09T00:12:22.571Z,81.85
2016-12-09T00:12:48.670Z,81.85
2016-12-09T00:13:14.783Z,81.85
2016-12-09T00:13:40.904Z,81.95
2016-12-09T00:14:07.015Z,82
2016-12-09T00:14:33.127Z,81.71
2016-12-09T00:14:59.238Z,82.04
2016-12-09T00:15:25.336Z,82.14
2016-12-09T00:15:51.441Z,82.23
2016-12-09T00:16:17.553Z,82.14
2016-12-09T00:16:43.655Z,82.14
2016-12-09T00:17:09.765Z,81.95
2016-12-09T00:17:35.855Z,81.76
2016-12-09T00:18:01.965Z,81.47
2016-12-09T00:18:28.077Z,81.56
2016-12-09T00:18:54.172Z,81.66
2016-12-09T00:19:20.270Z,81.56
2016-12-09T00:19:46.387Z,81.76
2016-12-09T00:20:12.482Z,81.66
2016-12-09T00:20:38.589Z,81.71
2016-12-09T00:21:04.702Z,82.14
2016-12-09T00:21:30.800Z,81.95
2016-12-09T00:21:56.897Z,81.66
2016-12-09T00:22:23.005Z,81.37
2016-12-09T00:22:49.111Z,81.47
2016-12-09T00:23:15.220Z,81.18
2016-12-09T00:23:41.343Z,81.28
2016-12-09T00:24:07.448Z,81.37
2016-12-09T00:24:33.556Z,81.18
2016-12-09T00:24:59.656Z,81.66
2016-12-09T00:25:25.754Z,81.37
2016-12-09T00:25:51.866Z,81.66
2016-12-09T00:26:17.972Z,81.37
2016-12-09T00:26:44.066Z,81.37
2016-12-09T00:27:10.179Z,81.18
2016-12-09T00:27:36.287Z,81.28
2016-12-09T00:28:02.393Z,81.18
2016-12-09T00:28:28.496Z,81.66
2016-12-09T00:28:54.592Z,81.66
2016-12-09T00:29:20.708Z,81.66
2016-12-09T00:29:46.810Z,81.66
2016-12-09T00:30:12.905Z,81.18
2016-12-09T00:30:39.014Z,81.37
2016-12-09T00:31:05.121Z,81.18
2016-12-09T00:31:31.217Z,81.28
2016-12-09T00:31:57.326Z,81.18
2016-12-09T00:32:23.435Z,81.09
2016-12-09T00:32:49.531Z,81.37
2016-12-09T00:33:15.636Z,81.47
2016-12-09T00:33:41.734Z,81.37
2016-12-09T00:34:07.842Z,80.9
2016-12-09T00:34:33.948Z,80.8
2016-12-09T00:35:00.047Z,80.71
2016-12-09T00:35:26.158Z,80.9
2016-12-09T00:35:52.272Z,80.9
2016-12-09T00:36:18.367Z,80.61
2016-12-09T00:36:44.473Z,80.71
2016-12-09T00:37:10.584Z,80.42
2016-12-09T00:37:36.681Z,80.8
2016-12-09T00:38:02.788Z,80.71
2016-12-09T00:38:28.901Z,80.71
2016-12-09T00:38:55.002Z,80.42
2016-12-09T00:39:21.094Z,80.99
2016-12-09T00:39:47.213Z,80.9
2016-12-09T00:40:13.312Z,80.8
2016-12-09T00:40:39.413Z,81.47
2016-12-09T00:41:05.552Z,81.28
2016-12-09T00:41:31.657Z,81.56
2016-12-09T00:41:57.755Z,81.28
2016-12-09T00:42:23.859Z,81.28
2016-12-09T00:42:49.973Z,81.09
2016-12-09T00:43:16.067Z,80.42
2016-12-09T00:43:42.175Z,80.61
2016-12-09T00:44:08.287Z,80.9
2016-12-09T00:44:34.386Z,81.66
2016-12-09T00:45:00.496Z,81.47
2016-12-09T00:45:26.593Z,81.28
2016-12-09T00:45:52.706Z,81.47
2016-12-09T00:46:18.812Z,81.66
2016-12-09T00:46:44.908Z,82.04
2016-12-09T00:47:11.009Z,81.95
2016-12-09T00:47:37.121Z,81.76
2016-12-09T00:48:03.247Z,81.95
2016-12-09T00:48:29.352Z,81.66
2016-12-09T00:48:55.461Z,82.23
2016-12-09T00:49:21.568Z,82.51
2016-12-09T00:49:47.666Z,82.04
2016-12-09T00:50:13.775Z,82.23
2016-12-09T00:50:39.880Z,82.51
2016-12-09T00:51:05.994Z,82.42
2016-12-09T00:51:32.092Z,82.42
2016-12-09T00:51:58.200Z,82.51
2016-12-09T00:52:24.308Z,82.8
2016-12-09T00:52:50.408Z,82.8
2016-12-09T00:53:16.504Z,82.8
2016-12-09T00:53:42.620Z,83.65
2016-12-09T00:54:08.723Z,82.99
2016-12-09T00:54:34.822Z,82.42
2016-12-09T00:55:00.932Z,82.61
2016-12-09T00:55:27.037Z,82.8
2016-12-09T00:55:53.144Z,83.18
2016-12-09T00:56:19.240Z,82.99
2016-12-09T00:56:45.335Z,82.61
2016-12-09T00:57:11.450Z,82.99
2016-12-09T00:57:37.555Z,83.09
2016-12-09T00:58:03.653Z,82.99
2016-12-09T00:58:29.762Z,82.99
2016-12-09T00:58:55.866Z,82.7
2016-12-09T00:59:21.963Z,83.37
2016-12-09T00:59:48.072Z,83.28
2016-12-09T01:00:14.184Z,82.8
2016-12-09T01:00:40.278Z,82.99
2016-12-09T01:01:06.380Z,82.99
2016-12-09T01:01:32.478Z,82.8
2016-12-09T01:01:58.591Z,82.99
2016-12-09T01:02:24.694Z,83.09
2016-12-09T01:02:50.791Z,83.18
2016-12-09T01:03:16.895Z,82.7
2016-12-09T01:03:43.002Z,83.56
2016-12-09T01:04:09.097Z,83.37
2016-12-09T01:04:35.200Z,83.37
2016-12-09T01:05:01.309Z,83.37
2016-12-09T01:05:27.406Z,83.56
2016-12-09T01:05:53.513Z,83.65
2016-12-09T01:06:19.622Z,83.09
2016-12-09T01:06:45.718Z,82.8
2016-12-09T01:07:11.826Z,82.99
2016-12-09T01:07:37.919Z,83.18
2016-12-09T01:08:04.021Z,83.09
2016-12-09T01:08:30.133Z,83.18
2016-12-09T01:08:56.226Z,83.09
2016-12-09T01:09:22.327Z,83.28
2016-12-09T01:09:48.440Z,83.18
2016-12-09T01:10:14.541Z,83.37
2016-12-09T01:10:40.637Z,83.09
2016-12-09T01:11:06.753Z,83.47
2016-12-09T01:11:32.860Z,83.37
2016-12-09T01:11:58.952Z,83.37
2016-12-09T01:12:25.064Z,83.18
2016-12-09T01:12:51.166Z,83.37
2016-12-09T01:13:17.277Z,83.56
2016-12-09T01:13:43.379Z,83.65
2016-12-09T01:14:09.476Z,83.75
2016-12-09T01:14:35.585Z,83.18
2016-12-09T01:15:01.691Z,83.37
2016-12-09T01:15:27.791Z,83.56
2016-12-09T01:15:53.903Z,84.04
2016-12-09T01:16:20.011Z,83.85
2016-12-09T01:16:46.107Z,84.04
2016-12-09T01:17:12.214Z,84.04
2016-12-09T01:17:38.325Z,83.75
2016-12-09T01:18:04.428Z,83.85
2016-12-09T01:18:30.529Z,83.75
2016-12-09T01:18:56.626Z,83.47
2016-12-09T01:19:22.739Z,83.18
2016-12-09T01:19:48.843Z,83.47
2016-12-09T01:20:14.938Z,83.18
2016-12-09T01:20:41.048Z,83.37
2016-12-09T01:21:07.161Z,83.37
2016-12-09T01:21:33.254Z,83.28
2016-12-09T01:21:59.358Z,84.13
2016-12-09T01:22:25.474Z,83.94
2016-12-09T01:22:51.569Z,83.94
2016-12-09T01:23:17.671Z,84.42
2016-12-09T01:23:43.781Z,84.33
2016-12-09T01:24:09.878Z,84.52
2016-12-09T01:24:35.973Z,84.61
2016-12-09T01:25:02.091Z,84.42
2016-12-09T01:25:28.187Z,84.42
2016-12-09T01:25:54.286Z,84.04
2016-12-09T01:26:20.397Z,83.94
2016-12-09T01:26:46.501Z,84.04
2016-12-09T01:27:12.596Z,83.85
2016-12-09T01:27:38.705Z,83.75
2016-12-09T01:28:04.818Z,83.65
2016-12-09T01:28:30.928Z,83.56
2016-12-09T01:28:57.034Z,83.37
2016-12-09T01:29:23.167Z,83.56
2016-12-09T01:29:49.277Z,83.56
2016-12-09T01:30:15.378Z,83.47
2016-12-09T01:30:41.471Z,83.37
2016-12-09T01:31:07.578Z,83.56
2016-12-09T01:31:33.693Z,83.37
2016-12-09T01:31:59.783Z,83.47
2016-12-09T01:32:25.886Z,84.04
2016-12-09T01:32:51.998Z,83.65
2016-12-09T01:33:18.099Z,83.37
2016-12-09T01:33:44.238Z,83.37
2016-12-09T01:34:10.340Z,83.37
2016-12-09T01:34:36.447Z,83.37
2016-12-09T01:35:02.558Z,83.28
2016-12-09T01:35:28.654Z,83.56
2016-12-09T01:35:54.756Z,83.28
2016-12-09T01:36:20.866Z,83.65
2016-12-09T01:36:46.962Z,83.75
2016-12-09T01:37:13.081Z,84.04
2016-12-09T01:37:39.198Z,84.23
2016-12-09T01:38:05.301Z,84.04
2016-12-09T01:38:31.395Z,84.23
2016-12-09T01:38:57.514Z,84.61
2016-12-09T01:39:23.614Z,84.04
2016-12-09T01:39:49.710Z,84.52
2016-12-09T01:40:15.817Z,84.23
2016-12-09T01:40:41.913Z,84.33
2016-12-09T01:41:08.062Z,84.42
2016-12-09T01:41:34.185Z,84.33
2016-12-09T01:42:00.289Z,84.33
2016-12-09T01:42:26.404Z,84.42
2016-12-09T01:42:52.509Z,84.23
2016-12-09T01:43:18.608Z,83.94
2016-12-09T01:43:44.721Z,84.33
2016-12-09T01:44:10.826Z,84.23
2016-12-09T01:44:36.933Z,83.94
2016-12-09T01:45:03.037Z,83.94
2016-12-09T01:45:29.151Z,83.75
2016-12-09T01:45:55.250Z,83.94
2016-12-09T01:46:21.354Z,83.94
2016-12-09T01:46:47.451Z,84.13
2016-12-09T01:47:13.558Z,83.94
2016-12-09T01:47:39.663Z,84.04
2016-12-09T01:48:05.762Z,83.85
2016-12-09T01:48:31.910Z,83.94
2016-12-09T01:48:58.022Z,83.56
2016-12-09T01:49:24.163Z,83.37
2016-12-09T01:49:50.280Z,83.09
2016-12-09T01:50:16.390Z,83.37
2016-12-09T01:50:42.487Z,83.37
2016-12-09T01:51:08.590Z,83.37
2016-12-09T01:51:34.717Z,83.37
2016-12-09T01:52:00.833Z,83.65
2016-12-09T01:52:26.942Z,83.18
2016-12-09T01:52:53.037Z,83.47
2016-12-09T01:53:19.144Z,83.47
2016-12-09T01:53:45.257Z,83.47
2016-12-09T01:54:11.351Z,83.18
2016-12-09T01:54:37.513Z,83.56
2016-12-09T01:55:03.633Z,83.18
2016-12-09T01:55:29.719Z,83.18
2016-12-09T01:55:55.822Z,83.28
2016-12-09T01:56:21.936Z,83.28
2016-12-09T01:56:48.042Z,83.09
2016-12-09T01:57:14.154Z,83.09
2016-12-09T01:57:40.250Z,83.09
2016-12-09T01:58:06.358Z,83.28
2016-12-09T01:58:32.470Z,83.37
2016-12-09T01:58:58.577Z,83.18
2016-12-09T01:59:24.728Z,83.28
2016-12-09T01:59:50.815Z,83.28
2016-12-09T02:00:17.018Z,83.18
2016-12-09T02:00:43.158Z,83.37
2016-12-09T02:01:09.272Z,83.37
2016-12-09T02:01:35.378Z,83.18
2016-12-09T02:02:01.474Z,83.09
2016-12-09T02:02:27.583Z,83.09
2016-12-09T02:02:53.679Z,83.18
2016-12-09T02:03:19.791Z,82.9
2016-12-09T02:03:45.894Z,82.8
2016-12-09T02:04:11.998Z,83.28
2016-12-09T02:04:38.111Z,83.18
2016-12-09T02:05:04.219Z,83.65
2016-12-09T02:05:30.330Z,83.65
2016-12-09T02:05:56.482Z,83.65
2016-12-09T02:06:22.593Z,83.37
2016-12-09T02:06:48.700Z,82.99
2016-12-09T02:07:14.808Z,82.9
2016-12-09T02:07:40.926Z,82.9
2016-12-09T02:08:07.015Z,82.9
2016-12-09T02:08:33.186Z,82.99
2016-12-09T02:08:59.278Z,82.8
2016-12-09T02:09:25.383Z,82.99
2016-12-09T02:09:51.483Z,82.8
2016-12-09T02:10:17.599Z,83.28
2016-12-09T02:10:43.701Z,83.09
2016-12-09T02:11:09.804Z,83.28
2016-12-09T02:11:35.912Z,82.99
2016-12-09T02:12:02.018Z,83.09
2016-12-09T02:12:28.113Z,83.09
2016-12-09T02:12:54.230Z,83.09
2016-12-09T02:13:20.339Z,83.09
2016-12-09T02:13:46.466Z,83.37
2016-12-09T02:14:12.572Z,83.09
2016-12-09T02:14:38.703Z,83.09
2016-12-09T02:15:04.806Z,82.8
2016-12-09T02:15:30.912Z,82.99
2016-12-09T02:15:57.007Z,82.7
2016-12-09T02:16:23.145Z,82.99
2016-12-09T02:16:49.244Z,82.99
2016-12-09T02:17:15.338Z,82.99
2016-12-09T02:17:41.444Z,82.8
2016-12-09T02:18:07.557Z,82.99
2016-12-09T02:18:33.653Z,82.8
2016-12-09T02:18:59.760Z,82.7
2016-12-09T02:19:25.862Z,82.9
2016-12-09T02:19:51.999Z,83.28
2016-12-09T02:20:18.104Z,82.9
2016-12-09T02:20:44.207Z,82.61
2016-12-09T02:21:10.313Z,83.09
2016-12-09T02:21:36.427Z,82.9
2016-12-09T02:22:02.520Z,82.9
2016-12-09T02:22:28.625Z,82.51
2016-12-09T02:22:54.739Z,83.37
2016-12-09T02:23:20.838Z,83.09
2016-12-09T02:23:46.978Z,83.03
2016-12-09T02:24:13.086Z,82.46
2016-12-09T02:24:39.182Z,83.37
2016-12-09T02:25:05.288Z,83.09
2016-12-09T02:25:31.389Z,83.28
2016-12-09T02:25:57.518Z,83.09
2016-12-09T02:26:23.628Z,83.18
2016-12-09T02:26:49.726Z,83.09
2016-12-09T02:27:15.822Z,83.56
2016-12-09T02:27:41.935Z,83.56
2016-12-09T02:28:08.037Z,83.65
2016-12-09T02:28:34.135Z,83.28
2016-12-09T02:29:00.246Z,83.37
2016-12-09T02:29:26.349Z,83.56
2016-12-09T02:29:52.443Z,83.37
2016-12-09T02:30:18.548Z,83.37
2016-12-09T02:30:44.644Z,83.65
2016-12-09T02:31:10.769Z,83.56
2016-12-09T02:31:36.903Z,83.18
2016-12-09T02:32:02.982Z,83.32
2016-12-09T02:32:29.144Z,83.09
2016-12-09T02:32:55.235Z,83.37
2016-12-09T02:33:21.350Z,83.56
2016-12-09T02:33:47.458Z,83.56
2016-12-09T02:34:13.566Z,83.56
2016-12-09T02:34:39.661Z,83.09
2016-12-09T02:35:05.817Z,83.37
2016-12-09T02:35:31.917Z,83.65
2016-12-09T02:35:58.016Z,83.75
2016-12-09T02:36:24.129Z,84.04
2016-12-09T02:36:50.266Z,83.85
2016-12-09T02:37:16.401Z,84.13
2016-12-09T02:37:42.685Z,83.47
2016-12-09T02:38:08.774Z,83.65
2016-12-09T02:38:34.876Z,83.7
2016-12-09T02:39:00.988Z,83.47
2016-12-09T02:39:27.084Z,83.22
2016-12-09T02:39:53.188Z,83.56
2016-12-09T02:40:19.297Z,83.56
2016-12-09T02:40:45.395Z,83.37
2016-12-09T02:41:11.490Z,83.41
2016-12-09T02:41:37.599Z,83.75
2016-12-09T02:42:03.703Z,83.85
2016-12-09T02:42:29.846Z,83.94
2016-12-09T02:42:55.971Z,84.13
2016-12-09T02:43:22.119Z,83.94
2016-12-09T02:43:48.254Z,83.85
2016-12-09T02:44:14.365Z,83.56
2016-12-09T02:44:40.478Z,83.65
2016-12-09T02:45:06.599Z,83.8
2016-12-09T02:45:32.698Z,84.42
2016-12-09T02:45:58.811Z,84.7
2016-12-09T02:46:24.923Z,84.89
2016-12-09T02:46:51.028Z,85.08
2016-12-09T02:47:17.130Z,84.61
2016-12-09T02:47:43.226Z,85.37
2016-12-09T02:48:09.322Z,84.61
2016-12-09T02:48:35.433Z,85.28
2016-12-09T02:49:01.533Z,85.37
2016-12-09T02:49:27.635Z,85.28
2016-12-09T02:49:53.747Z,84.99
2016-12-09T02:50:19.859Z,85.18
2016-12-09T02:50:45.956Z,85.28
2016-12-09T02:51:12.060Z,85.08
2016-12-09T02:51:38.173Z,85.28
2016-12-09T02:52:04.265Z,84.99
2016-12-09T02:52:30.374Z,85.28
2016-12-09T02:52:56.481Z,85.75
2016-12-09T02:53:22.578Z,85.85
2016-12-09T02:53:48.678Z,85.75
2016-12-09T02:54:14.789Z,85.75
2016-12-09T02:54:40.888Z,85.75
2016-12-09T02:55:07.012Z,85.47
2016-12-09T02:55:33.125Z,86.22
2016-12-09T02:55:59.331Z,86.32
2016-12-09T02:56:25.427Z,85.94
2016-12-09T02:56:51.536Z,86.32
2016-12-09T02:57:17.642Z,85.56
2016-12-09T02:57:43.740Z,85.7
2016-12-09T02:58:09.848Z,85.56
2016-12-09T02:58:35.949Z,85.66
2016-12-09T02:59:02.063Z,85.66
2016-12-09T02:59:28.163Z,85.94
2016-12-09T02:59:54.266Z,86.04
2016-12-09T03:00:20.377Z,85.94
2016-12-09T03:00:46.481Z,86.13
2016-12-09T03:01:12.573Z,86.04
2016-12-09T03:01:38.684Z,85.85
2016-12-09T03:02:04.793Z,85.85
2016-12-09T03:02:30.889Z,86.32
2016-12-09T03:02:56.991Z,86.22
2016-12-09T03:03:23.106Z,86.7
2016-12-09T03:03:49.202Z,86.13
2016-12-09T03:04:15.310Z,86.42
2016-12-09T03:04:41.416Z,87.08
2016-12-09T03:05:07.536Z,86.7
2016-12-09T03:05:33.644Z,86.8
2016-12-09T03:05:59.736Z,86.99
2016-12-09T03:06:25.844Z,86.99
2016-12-09T03:06:51.953Z,86.7
2016-12-09T03:07:18.054Z,86.99
2016-12-09T03:07:44.153Z,87.08
2016-12-09T03:08:10.267Z,86.9
2016-12-09T03:08:36.362Z,86.99
2016-12-09T03:09:02.463Z,86.9
2016-12-09T03:09:28.575Z,86.99
2016-12-09T03:09:54.682Z,86.99
2016-12-09T03:10:20.794Z,86.99
2016-12-09T03:10:46.887Z,86.42
2016-12-09T03:11:12.990Z,86.27
2016-12-09T03:11:39.102Z,86.22
2016-12-09T03:12:05.204Z,86.46
2016-12-09T03:12:31.302Z,86.42
2016-12-09T03:12:57.417Z,86.36
2016-12-09T03:13:23.522Z,86.32
2016-12-09T03:13:49.619Z,86.42
2016-12-09T03:14:15.731Z,86.51
2016-12-09T03:14:41.832Z,86.46
2016-12-09T03:15:07.936Z,86.18
2016-12-09T03:15:34.045Z,86.46
2016-12-09T03:16:00.159Z,86.55
2016-12-09T03:16:26.255Z,86.27
2016-12-09T03:16:52.360Z,86.61
2016-12-09T03:17:18.471Z,86.18
2016-12-09T03:17:44.571Z,86.65
2016-12-09T03:18:10.672Z,86.46
2016-12-09T03:18:36.785Z,86.55
2016-12-09T03:19:02.887Z,86.46
2016-12-09T03:19:28.984Z,86.18
2016-12-09T03:19:55.097Z,86.46
2016-12-09T03:20:21.203Z,86.55
2016-12-09T03:20:47.309Z,86.94
2016-12-09T03:21:13.405Z,86.7
2016-12-09T03:21:39.507Z,87.32
2016-12-09T03:22:05.617Z,87.37
2016-12-09T03:22:31.719Z,87.23
2016-12-09T03:22:57.813Z,87.23
2016-12-09T03:23:23.926Z,87.13
2016-12-09T03:23:50.030Z,87.41
2016-12-09T03:24:16.126Z,87.75
2016-12-09T03:24:42.241Z,87.46
2016-12-09T03:25:08.346Z,87.94
2016-12-09T03:25:34.445Z,88.13
2016-12-09T03:26:00.551Z,88.13
2016-12-09T03:26:26.644Z,87.94
2016-12-09T03:26:52.759Z,87.94
2016-12-09T03:27:18.863Z,87.98
2016-12-09T03:27:44.960Z,88.42
2016-12-09T03:28:11.073Z,88.13
2016-12-09T03:28:37.178Z,87.94
2016-12-09T03:29:03.275Z,88.27
2016-12-09T03:29:29.406Z,88.18
2016-12-09T03:29:55.521Z,88.18
2016-12-09T03:30:21.614Z,87.51
2016-12-09T03:30:47.721Z,87.51
2016-12-09T03:31:13.831Z,87.6
2016-12-09T03:31:39.928Z,87.79
2016-12-09T03:32:06.038Z,87.7
2016-12-09T03:32:32.135Z,88.18
2016-12-09T03:32:58.239Z,87.51
2016-12-09T03:33:24.352Z,87.94
2016-12-09T03:33:50.443Z,88.04
2016-12-09T03:34:16.546Z,88.18
2016-12-09T03:34:42.656Z,87.98
2016-12-09T03:35:08.747Z,88.18
2016-12-09T03:35:34.852Z,87.89
2016-12-09T03:36:00.962Z,88.84
2016-12-09T03:36:27.057Z,88.6
2016-12-09T03:36:53.156Z,88.7
2016-12-09T03:37:19.268Z,89.08
2016-12-09T03:37:45.373Z,89.27
2016-12-09T03:38:11.474Z,89.18
2016-12-09T03:38:37.584Z,88.99
2016-12-09T03:39:03.688Z,89.18
2016-12-09T03:39:29.781Z,89.08
2016-12-09T03:39:55.888Z,89.08
2016-12-09T03:40:21.998Z,89.75
2016-12-09T03:40:48.092Z,89.65
2016-12-09T03:41:14.198Z,89.56
2016-12-09T03:41:40.338Z,89.47
2016-12-09T03:42:06.431Z,89.47
2016-12-09T03:42:32.538Z,89.56
2016-12-09T03:42:58.639Z,89.37
2016-12-09T03:43:24.750Z,89.37
2016-12-09T03:43:50.860Z,89.75
2016-12-09T03:44:16.951Z,89.27
2016-12-09T03:44:43.055Z,89.56
2016-12-09T03:45:09.163Z,89.47
2016-12-09T03:45:35.255Z,89.65
2016-12-09T03:46:01.357Z,89.84
2016-12-09T03:46:27.471Z,89.47
2016-12-09T03:46:53.570Z,89.47
2016-12-09T03:47:19.667Z,90.13
2016-12-09T03:47:45.781Z,89.47
2016-12-09T03:48:11.888Z,89.56
2016-12-09T03:48:37.996Z,89.56
2016-12-09T03:49:04.089Z,88.99
2016-12-09T03:49:30.188Z,89.08
2016-12-09T03:49:56.302Z,89.08
2016-12-09T03:50:22.401Z,88.99
2016-12-09T03:50:48.499Z,89.18
2016-12-09T03:51:14.611Z,89.18
2016-12-09T03:51:40.710Z,89.75
2016-12-09T03:52:06.803Z,88.99
2016-12-09T03:52:32.910Z,89.65
2016-12-09T03:52:59.015Z,89.94
2016-12-09T03:53:25.112Z,89.56
2016-12-09T03:53:51.221Z,89.56
2016-12-09T03:54:17.316Z,89.56
2016-12-09T03:54:43.433Z,90.32
2016-12-09T03:55:09.536Z,90.22
2016-12-09T03:55:35.635Z,90.13
2016-12-09T03:56:01.745Z,90.32
2016-12-09T03:56:27.952Z,90.56
2016-12-09T03:56:54.048Z,90.13
2016-12-09T03:57:20.156Z,90.17
2016-12-09T03:57:46.271Z,89.65
2016-12-09T03:58:12.376Z,89.47
2016-12-09T03:58:38.471Z,89.61
2016-12-09T03:59:04.581Z,89.47
2016-12-09T03:59:30.674Z,89.75
2016-12-09T03:59:56.782Z,89.79
2016-12-09T04:00:22.879Z,89.79
2016-12-09T04:00:48.989Z,89.56
2016-12-09T04:01:15.097Z,89.84
2016-12-09T04:01:41.191Z,89.37
2016-12-09T04:02:07.297Z,89.47
2016-12-09T04:02:33.403Z,89.56
2016-12-09T04:02:59.497Z,89.47
2016-12-09T04:03:25.602Z,90.32
2016-12-09T04:03:51.710Z,90.32
2016-12-09T04:04:17.812Z,90.32
2016-12-09T04:04:43.914Z,90.22
2016-12-09T04:05:10.021Z,90.32
2016-12-09T04:05:36.125Z,90.03
2016-12-09T04:06:02.236Z,90.13
2016-12-09T04:06:28.332Z,90.51
2016-12-09T04:06:54.436Z,90.22
2016-12-09T04:07:20.544Z,89.56
2016-12-09T04:07:46.646Z,89.47
2016-12-09T04:08:12.740Z,90.13
2016-12-09T04:08:38.854Z,90.03
2016-12-09T04:09:04.954Z,90.51
2016-12-09T04:09:31.047Z,90.89
2016-12-09T04:09:57.154Z,90.89
2016-12-09T04:10:23.263Z,90.61
2016-12-09T04:10:49.372Z,91.17
2016-12-09T04:11:15.474Z,90.89
2016-12-09T04:11:41.564Z,90.51
2016-12-09T04:12:07.679Z,91.08
2016-12-09T04:12:33.783Z,90.42
2016-12-09T04:12:59.883Z,90.51
2016-12-09T04:13:25.993Z,90.89
2016-12-09T04:13:52.098Z,90.42
2016-12-09T04:14:18.198Z,90.8
2016-12-09T04:14:44.306Z,90.61
2016-12-09T04:15:10.412Z,90.32
2016-12-09T04:15:36.505Z,90.7
2016-12-09T04:16:02.614Z,90.8
2016-12-09T04:16:28.741Z,91.37
2016-12-09T04:16:54.849Z,91.37
2016-12-09T04:17:20.956Z,91.37
2016-12-09T04:17:47.052Z,90.89
2016-12-09T04:18:13.160Z,90.8
2016-12-09T04:18:39.268Z,90.99
2016-12-09T04:19:05.378Z,90.42
2016-12-09T04:19:31.479Z,90.22
2016-12-09T04:19:57.590Z,90.32
2016-12-09T04:20:23.693Z,90.89
2016-12-09T04:20:49.846Z,91.17
2016-12-09T04:21:15.996Z,90.8
2016-12-09T04:21:42.100Z,90.7
2016-12-09T04:22:08.193Z,90.51
2016-12-09T04:22:34.306Z,90.7
2016-12-09T04:23:00.410Z,90.13
2016-12-09T04:23:26.528Z,90.03
2016-12-09T04:23:52.637Z,89.75
2016-12-09T04:24:18.744Z,90.22
2016-12-09T04:24:44.839Z,90.51
2016-12-09T04:25:10.950Z,91.17
2016-12-09T04:25:37.089Z,90.32
2016-12-09T04:26:03.178Z,90.8
2016-12-09T04:26:29.288Z,90.42
2016-12-09T04:26:55.399Z,90.8
2016-12-09T04:27:21.498Z,90.89
2016-12-09T04:27:47.607Z,90.51
2016-12-09T04:28:13.701Z,90.51
2016-12-09T04:28:39.808Z,90.61
2016-12-09T04:29:05.923Z,90.7
2016-12-09T04:29:32.015Z,90.8
2016-12-09T04:29:58.119Z,91.08
2016-12-09T04:30:24.229Z,90.89
2016-12-09T04:30:50.324Z,90.8
2016-12-09T04:31:16.431Z,90.8
2016-12-09T04:31:42.541Z,90.51
2016-12-09T04:32:08.637Z,90.89
2016-12-09T04:32:34.729Z,91.08
2016-12-09T04:33:00.837Z,90.99
2016-12-09T04:33:26.941Z,90.51
2016-12-09T04:33:53.056Z,90.7
2016-12-09T04:34:19.149Z,90.89
2016-12-09T04:34:45.254Z,90.7
2016-12-09T04:35:11.363Z,90.8
2016-12-09T04:35:37.462Z,90.8
2016-12-09T04:36:03.555Z,90.32
2016-12-09T04:36:29.671Z,90.7
2016-12-09T04:36:55.777Z,90.61
2016-12-09T04:37:21.870Z,90.61
2016-12-09T04:37:47.981Z,90.51
2016-12-09T04:38:14.085Z,90.61
2016-12-09T04:38:40.196Z,90.42
2016-12-09T04:39:06.300Z,90.42
2016-12-09T04:39:32.395Z,90.32
2016-12-09T04:39:58.511Z,90.61
2016-12-09T04:40:24.611Z,90.89
2016-12-09T04:40:50.736Z,90.7
2016-12-09T04:41:16.879Z,90.61
2016-12-09T04:41:42.986Z,90.61
2016-12-09T04:42:09.080Z,90.51
2016-12-09T04:42:35.189Z,90.61
2016-12-09T04:43:01.301Z,90.51
2016-12-09T04:43:27.399Z,90.7
2016-12-09T04:43:53.502Z,90.89
2016-12-09T04:44:19.601Z,90.8
2016-12-09T04:44:45.714Z,90.56
2016-12-09T04:45:11.823Z,89.94
2016-12-09T04:45:37.920Z,90.36
2016-12-09T04:46:04.025Z,90.36
2016-12-09T04:46:30.138Z,90.51
2016-12-09T04:46:56.231Z,90.61
2016-12-09T04:47:22.330Z,90.32
2016-12-09T04:47:48.441Z,90.51
2016-12-09T04:48:14.540Z,90.7
2016-12-09T04:48:40.644Z,90.7
2016-12-09T04:49:06.750Z,90.61
2016-12-09T04:49:32.848Z,90.61
2016-12-09T04:49:58.960Z,91.08
2016-12-09T04:50:25.054Z,91.08
2016-12-09T04:50:51.158Z,90.61
2016-12-09T04:51:17.267Z,91.08
2016-12-09T04:51:43.359Z,90.7
2016-12-09T04:52:09.462Z,90.89
2016-12-09T04:52:35.574Z,90.84
2016-12-09T04:53:01.676Z,90.61
2016-12-09T04:53:27.774Z,90.61
2016-12-09T04:53:53.886Z,90.8
2016-12-09T04:54:19.987Z,90.22
2016-12-09T04:54:46.086Z,90.42
2016-12-09T04:55:12.197Z,90.32
2016-12-09T04:55:38.291Z,90.22
2016-12-09T04:56:04.401Z,90.7
2016-12-09T04:56:30.502Z,90.8
2016-12-09T04:56:56.597Z,90.42
2016-12-09T04:57:22.714Z,90.42
2016-12-09T04:57:48.813Z,90.7
2016-12-09T04:58:14.908Z,90.46
2016-12-09T04:58:41.024Z,90.94
2016-12-09T04:59:07.127Z,90.51
2016-12-09T04:59:33.223Z,90.32
2016-12-09T04:59:59.328Z,90.7
2016-12-09T05:00:25.438Z,91.03
2016-12-09T05:00:51.539Z,90.61
2016-12-09T05:01:17.641Z,90.65
2016-12-09T05:01:43.736Z,90.7
2016-12-09T05:02:09.851Z,90.46
2016-12-09T05:02:35.957Z,90.36
2016-12-09T05:03:02.051Z,90.61
2016-12-09T05:03:28.162Z,90.7
2016-12-09T05:03:54.275Z,91.31
2016-12-09T05:04:20.368Z,91.08
2016-12-09T05:04:46.472Z,91.08
2016-12-09T05:05:12.585Z,91.27
2016-12-09T05:05:38.674Z,91.27
2016-12-09T05:06:04.776Z,91.31
2016-12-09T05:06:30.886Z,91.13
2016-12-09T05:06:56.983Z,91.41
2016-12-09T05:07:23.084Z,91.6
2016-12-09T05:07:49.196Z,91.41
2016-12-09T05:08:15.297Z,90.75
2016-12-09T05:08:41.392Z,91.41
2016-12-09T05:09:07.508Z,91.31
2016-12-09T05:09:33.613Z,91.41
2016-12-09T05:09:59.711Z,91.22
2016-12-09T05:10:25.820Z,91.31
2016-12-09T05:10:51.927Z,91.41
2016-12-09T05:11:18.015Z,91.17
2016-12-09T05:11:44.128Z,90.99
2016-12-09T05:12:10.228Z,91.41
2016-12-09T05:12:36.341Z,92.03
2016-12-09T05:13:02.445Z,91.94
2016-12-09T05:13:28.542Z,91.89
2016-12-09T05:13:54.651Z,91.31
2016-12-09T05:14:20.767Z,91.31
2016-12-09T05:14:46.860Z,91.37
2016-12-09T05:15:12.965Z,91.75
2016-12-09T05:15:39.076Z,91.75
2016-12-09T05:16:05.174Z,92.41
2016-12-09T05:16:31.272Z,92.51
2016-12-09T05:16:57.383Z,92.03
2016-12-09T05:17:23.481Z,92.41
2016-12-09T05:17:49.589Z,92.41
2016-12-09T05:18:15.682Z,91.94
2016-12-09T05:18:41.789Z,91.84
2016-12-09T05:19:07.902Z,91.94
2016-12-09T05:19:33.998Z,92.41
2016-12-09T05:20:00.098Z,92.65
2016-12-09T05:20:26.211Z,91.84
2016-12-09T05:20:52.311Z,91.84
2016-12-09T05:21:18.406Z,91.75
2016-12-09T05:21:44.520Z,91.84
2016-12-09T05:22:10.623Z,91.84
2016-12-09T05:22:36.723Z,92.13
2016-12-09T05:23:02.839Z,91.94
2016-12-09T05:23:28.937Z,91.7
2016-12-09T05:23:55.042Z,91.89
2016-12-09T05:24:21.141Z,91.89
2016-12-09T05:24:47.238Z,91.7
2016-12-09T05:25:13.352Z,91.7
2016-12-09T05:25:39.457Z,91.99
2016-12-09T05:26:05.551Z,91.84
2016-12-09T05:26:31.687Z,91.51
2016-12-09T05:26:57.794Z,91.6
2016-12-09T05:27:23.942Z,91.75
2016-12-09T05:27:50.048Z,91.31
2016-12-09T05:28:16.163Z,91.7
2016-12-09T05:28:42.258Z,91.41
2016-12-09T05:29:08.362Z,91.31
2016-12-09T05:29:34.478Z,91.41
2016-12-09T05:30:00.568Z,91.41
2016-12-09T05:30:26.697Z,91.13
2016-12-09T05:30:52.808Z,91.41
2016-12-09T05:31:18.911Z,91.41
2016-12-09T05:31:45.011Z,91.51
2016-12-09T05:32:11.128Z,91.13
2016-12-09T05:32:37.229Z,91.31
2016-12-09T05:33:03.325Z,91.31
2016-12-09T05:33:29.438Z,91.03
2016-12-09T05:33:55.541Z,91.13
2016-12-09T05:34:21.671Z,90.94
2016-12-09T05:34:47.770Z,91.13
2016-12-09T05:35:13.873Z,90.27
2016-12-09T05:35:39.988Z,90.75
2016-12-09T05:36:06.095Z,90.36
2016-12-09T05:36:32.192Z,90.65
2016-12-09T05:36:58.303Z,91.03
2016-12-09T05:37:24.403Z,90.84